NCAR-RAP Real-Time Weather Data

Output produced by METARs form (06 May 2021  16:51 UTC)
found at http://weather.rap.ucar.edu/surface/
 
KDPA 061645Z 03011KT 10SM -RA SCT015 OVC055 08/04 A3008 RMK AO2 RAB38 P0000 T00830044
KDPA 061628Z 03010KT 10SM BKN015 BKN024 OVC070 09/06 A3008 RMK AO2 T00940056
KDPA 061552Z 01010KT 10SM FEW033 BKN060 OVC100 10/06 A3008 RMK AO2 SLP187 T01000056
KDPA 061452Z 34008KT 10SM BKN039 OVC045 10/04 A3008 RMK AO2 SLP188 60000 T01000044 55004
KDPA 061352Z 16009KT 10SM BKN060 OVC075 09/03 A3006 RMK AO2 SLP182 T00890033
KDPA 061255Z 14009KT 10SM SCT050 OVC070 09/04 A3007 RMK AO2 RAE11B28E41 SLP186 P0000 T00890039
KDPA 061152Z 15006KT 10SM -RA BKN055 OVC070 08/04 A3009 RMK AO2 SLP192 P0002 60002 70002 T00830044 10094 20078 55002
KDPA 061052Z 00000KT 10SM -RA OVC055 08/04 A3009 RMK AO2 RAB24 SLP190 P0000 T00830039
KDPA 060952Z 13005KT 10SM FEW060 OVC080 08/03 A3008 RMK AO2 RAE46 SLP185 P0000 T00830028
KDPA 060852Z 07003KT 10SM -RA BKN060 OVC075 09/02 A3010 RMK AO2 RAB38 SLP192 P0000 60000 T00890017 56007
KDPA 060752Z 10003KT 10SM OVC065 09/M01 A3010 RMK AO2 SLP193 T00941006
KDPA 060652Z 16003KT 10SM BKN075 OVC090 09/M01 A3011 RMK AO2 SLP196 T00891006
KDPA 060552Z 15007KT 10SM OVC100 09/M01 A3012 RMK AO2 SLP201 T00891011 10122 20083 58010
KDPA 060452Z 15005KT 10SM FEW110 08/M01 A3014 RMK AO2 SLP207 T00831011 401720028
KDPA 060352Z 13004KT 10SM CLR 09/M01 A3015 RMK AO2 SLP212 T00891011
KDPA 060252Z 13004KT 10SM CLR 09/M02 A3015 RMK AO2 SLP212 T00891017 53011
KDPA 060152Z 11005KT 10SM CLR 09/M01 A3014 RMK AO2 SLP207 T00941011